Time;durP1;ratioP1;P1;durP2;ratioP2;P2;SDS_P1;SDS_P2;PMS_P1;PMS_P2;Temp;Humidity;BMP_temperature;BMP_pressure;BME280_temperature;BME280_humidity;BME280_pressure;Samples;Min_cycle;Max_cycle;Signal;HPM_P1;HPM_P2
2024/03/21 00:00:57;;;;;;;3.63;1.90;;;18.10;65.10;;;;;;6184401;23;20490;-84
2024/03/21 00:03:23;;;;;;;2.63;1.63;;;18.00;65.10;;;;;;6183888;23;20174;-84
2024/03/21 00:05:49;;;;;;;2.85;1.73;;;18.10;65.00;;;;;;6159482;23;20190;-84
2024/03/21 00:08:19;;;;;;;2.25;1.60;;;18.10;65.10;;;;;;6159459;23;20567;-84
2024/03/21 00:10:45;;;;;;;4.63;1.80;;;18.00;64.90;;;;;;6133826;23;20230;-84
2024/03/21 00:13:11;;;;;;;3.42;1.85;;;18.10;64.90;;;;;;6159496;23;20582;-85
2024/03/21 00:15:41;;;;;;;2.42;1.83;;;18.00;64.90;;;;;;6159370;23;20138;-84
2024/03/21 00:18:08;;;;;;;3.33;2.08;;;18.00;65.30;;;;;;6135068;23;20139;-84
2024/03/21 00:20:34;;;;;;;3.28;1.92;;;18.00;65.00;;;;;;6158984;23;20143;-85
2024/03/21 00:23:01;;;;;;;4.03;2.00;;;18.00;65.00;;;;;;6159381;23;20158;-84
2024/03/21 00:25:27;;;;;;;3.28;1.90;;;18.00;65.00;;;;;;6158845;23;20150;-84
2024/03/21 00:27:53;;;;;;;3.38;1.80;;;18.00;65.00;;;;;;6183776;23;20149;-84
2024/03/21 00:30:19;;;;;;;2.78;1.70;;;18.00;65.10;;;;;;6185398;23;20193;-84
2024/03/21 00:32:45;;;;;;;2.80;1.60;;;18.00;64.70;;;;;;6183663;23;20174;-85
2024/03/21 00:35:11;;;;;;;3.45;1.90;;;18.00;65.00;;;;;;6159274;23;20248;-84
2024/03/21 00:37:37;;;;;;;3.55;1.95;;;18.00;65.10;;;;;;6134620;23;20135;-84
2024/03/21 00:40:03;;;;;;;3.58;2.08;;;18.10;64.70;;;;;;6158874;23;20139;-85
2024/03/21 00:42:29;;;;;;;2.65;1.60;;;18.00;64.70;;;;;;6158608;23;20253;-84
2024/03/21 00:44:54;;;;;;;2.88;1.83;;;18.00;64.70;;;;;;6134476;23;20179;-84
2024/03/21 00:47:21;;;;;;;3.35;2.15;;;18.00;65.00;;;;;;6159171;23;20150;-85
2024/03/21 00:49:47;;;;;;;2.97;1.90;;;18.00;65.00;;;;;;6185494;23;20139;-84
2024/03/21 00:52:13;;;;;;;3.08;2.00;;;18.00;64.70;;;;;;6158689;23;20177;-85
2024/03/21 00:54:39;;;;;;;2.08;1.83;;;18.00;64.90;;;;;;6133940;23;20202;-84
2024/03/21 00:57:09;;;;;;;4.05;2.38;;;18.00;64.90;;;;;;6159045;23;20128;-84
2024/03/21 00:59:35;;;;;;;2.67;1.70;;;18.00;65.40;;;;;;6133476;23;20151;-85
2024/03/21 01:02:03;;;;;;;3.22;2.00;;;18.10;64.80;;;;;;6134761;23;20147;-84
2024/03/21 01:04:29;;;;;;;3.33;2.08;;;18.00;64.80;;;;;;6133443;23;20189;-84
2024/03/21 01:06:54;;;;;;;5.15;1.90;;;18.00;64.90;;;;;;6134654;23;20143;-84
2024/03/21 01:09:21;;;;;;;2.60;1.75;;;18.00;65.00;;;;;;6134240;23;20487;-84
2024/03/21 01:11:48;;;;;;;3.88;1.85;;;17.90;64.90;;;;;;6183430;23;20135;-84
2024/03/21 01:14:13;;;;;;;3.35;1.85;;;18.00;65.60;;;;;;6183833;23;20131;-84
2024/03/21 01:16:39;;;;;;;2.97;1.92;;;17.90;65.20;;;;;;6134079;23;20150;-84
2024/03/21 01:19:05;;;;;;;2.47;1.90;;;17.90;64.90;;;;;;6159077;23;20135;-85
2024/03/21 01:21:31;;;;;;;5.03;1.95;;;17.90;65.20;;;;;;6158885;23;20135;-84
2024/03/21 01:23:58;;;;;;;2.03;1.67;;;17.90;65.00;;;;;;6158446;23;20590;-84
2024/03/21 01:26:24;;;;;;;3.38;2.20;;;17.90;64.90;;;;;;6183860;23;20221;-84
2024/03/21 01:28:51;;;;;;;3.03;2.00;;;17.90;65.80;;;;;;6158514;23;20201;-84
2024/03/21 01:31:20;;;;;;;4.38;2.13;;;17.90;65.20;;;;;;6158792;23;20135;-86
2024/03/21 01:33:47;;;;;;;3.38;1.83;;;17.90;65.00;;;;;;6183460;23;20201;-84
2024/03/21 01:36:13;;;;;;;3.25;2.08;;;17.90;65.10;;;;;;6134571;23;20161;-84
2024/03/21 01:38:39;;;;;;;3.35;2.20;;;17.90;65.30;;;;;;6184900;23;20128;-84
2024/03/21 01:41:06;;;;;;;3.17;2.03;;;17.90;65.00;;;;;;6159016;23;20456;-84
2024/03/21 01:43:32;;;;;;;2.60;1.80;;;17.90;65.00;;;;;;6183607;23;20504;-84
2024/03/21 01:46:15;;;;;;;3.83;1.80;;;17.90;64.90;;;;;;6185513;23;20139;-84
2024/03/21 01:48:43;;;;;;;3.50;1.90;;;17.90;64.90;;;;;;6184129;23;20230;-84
2024/03/21 01:51:09;;;;;;;2.47;1.90;;;17.90;65.00;;;;;;6159685;23;20139;-84
2024/03/21 01:53:35;;;;;;;2.78;1.80;;;17.90;65.00;;;;;;6159714;23;20154;-85
2024/03/21 01:56:04;;;;;;;3.15;2.00;;;17.90;64.90;;;;;;6152588;23;20348;-84
2024/03/21 01:58:34;;;;;;;3.67;1.90;;;17.90;65.00;;;;;;6109762;23;20154;-85
2024/03/21 02:01:27;;;;;;;2.70;1.60;;;17.90;65.00;;;;;;6085070;23;20162;-84
2024/03/21 02:03:59;;;;;;;2.97;2.03;;;17.90;65.20;;;;;;6132370;23;20190;-85
2024/03/21 02:06:26;;;;;;;3.40;2.03;;;17.90;64.90;;;;;;6134010;23;20169;-84
2024/03/21 02:08:53;;;;;;;2.55;1.92;;;17.90;64.80;;;;;;6208265;23;20154;-84
2024/03/21 02:11:20;;;;;;;2.58;1.52;;;17.80;64.80;;;;;;6158775;23;20130;-84
2024/03/21 02:13:46;;;;;;;3.13;1.80;;;17.90;64.90;;;;;;6158331;23;20230;-84
2024/03/21 02:16:13;;;;;;;4.30;2.13;;;17.90;65.00;;;;;;6158703;23;20167;-85
2024/03/21 02:18:39;;;;;;;2.80;1.77;;;17.90;64.90;;;;;;6157708;23;20155;-84
2024/03/21 02:22:35;;;;;;;2.75;1.70;;;17.90;65.00;;;;;;6158430;23;20558;-84
2024/03/21 02:23:51;;;;;;;4.00;1.70;;;17.80;64.90;;;;;;6183173;23;20174;-85
2024/03/21 02:26:18;;;;;;;2.67;1.83;;;17.90;65.00;;;;;;6158485;23;20150;-84
2024/03/21 02:28:44;;;;;;;3.22;1.85;;;17.90;65.20;;;;;;6159560;23;20530;-84
2024/03/21 02:31:10;;;;;;;2.75;1.98;;;17.90;64.90;;;;;;6136110;23;20150;-85
2024/03/21 02:33:36;;;;;;;3.45;2.05;;;17.90;65.00;;;;;;6185397;23;20143;-84
2024/03/21 02:36:03;;;;;;;1.75;1.60;;;17.80;65.10;;;;;;6160588;23;20210;-84
2024/03/21 02:38:29;;;;;;;2.80;1.90;;;17.90;65.00;;;;;;6185214;23;20146;-84
2024/03/21 02:41:00;;;;;;;3.25;2.00;;;17.80;65.00;;;;;;6159957;23;20139;-84
2024/03/21 02:43:29;;;;;;;4.00;2.00;;;17.90;64.90;;;;;;6042735;23;20195;-85
2024/03/21 02:45:56;;;;;;;2.55;1.75;;;17.90;65.00;;;;;;6056898;23;20662;-84
2024/03/21 02:48:22;;;;;;;3.13;1.85;;;17.80;65.00;;;;;;6057237;23;20151;-85
2024/03/21 02:50:48;;;;;;;4.13;1.90;;;17.80;64.90;;;;;;6130281;23;20154;-85
2024/03/21 02:53:14;;;;;;;2.28;1.70;;;17.80;65.40;;;;;;6105460;23;20143;-84
2024/03/21 02:55:39;;;;;;;3.45;1.95;;;17.80;65.00;;;;;;6130508;23;20591;-84
2024/03/21 02:58:05;;;;;;;2.53;1.85;;;17.80;65.30;;;;;;6130907;23;20606;-85
2024/03/21 03:00:31;;;;;;;3.63;2.20;;;17.80;65.00;;;;;;6106540;23;20584;-84
2024/03/21 03:02:58;;;;;;;3.05;1.80;;;17.80;65.10;;;;;;6105968;23;20202;-84
2024/03/21 03:05:24;;;;;;;2.50;1.92;;;17.80;65.30;;;;;;6130637;23;20171;-84
2024/03/21 03:07:51;;;;;;;4.03;1.92;;;17.70;65.00;;;;;;6105942;23;20494;-84
2024/03/21 03:10:17;;;;;;;4.05;2.00;;;17.80;65.10;;;;;;6056855;23;20485;-84
2024/03/21 03:12:43;;;;;;;3.55;1.98;;;17.80;65.00;;;;;;6106087;23;20489;-84
2024/03/21 03:15:10;;;;;;;2.55;1.70;;;17.90;65.00;;;;;;6130425;23;20163;-84
2024/03/21 03:17:36;;;;;;;3.47;2.20;;;17.70;65.20;;;;;;6130964;23;20124;-85
2024/03/21 03:20:02;;;;;;;2.90;2.17;;;17.80;65.00;;;;;;6129972;23;20151;-84
2024/03/21 03:22:28;;;;;;;2.70;2.05;;;17.80;65.20;;;;;;6106090;23;20634;-84
2024/03/21 03:24:54;;;;;;;2.75;1.85;;;17.80;65.00;;;;;;6106084;23;20175;-84
2024/03/21 03:27:21;;;;;;;2.85;2.00;;;17.80;65.10;;;;;;6156636;23;20139;-84
2024/03/21 03:29:47;;;;;;;2.50;1.77;;;17.80;65.30;;;;;;6130190;23;20140;-84
2024/03/21 03:32:13;;;;;;;3.30;1.80;;;17.80;65.10;;;;;;6130373;23;20135;-84
2024/03/21 03:37:16;;;;;;;4.22;1.90;;;17.70;65.00;;;;;;6132613;23;20222;-85
2024/03/21 03:39:43;;;;;;;2.90;2.15;;;17.70;65.20;;;;;;6130042;23;20171;-84
2024/03/21 03:42:09;;;;;;;2.72;1.80;;;17.80;65.20;;;;;;6133498;23;20599;-84
2024/03/21 03:44:37;;;;;;;2.78;1.95;;;17.80;65.30;;;;;;6159420;23;20205;-84
2024/03/21 03:47:04;;;;;;;2.65;1.77;;;17.70;65.30;;;;;;6135215;23;20147;-84
2024/03/21 03:49:30;;;;;;;3.22;1.83;;;17.70;64.90;;;;;;6184653;23;20174;-84
2024/03/21 03:51:56;;;;;;;4.25;2.08;;;17.70;65.30;;;;;;6160093;23;20218;-84
2024/03/21 03:54:22;;;;;;;3.17;1.90;;;17.80;65.40;;;;;;6183486;23;20581;-84
2024/03/21 03:56:47;;;;;;;3.42;2.00;;;17.80;65.00;;;;;;6159557;23;20551;-84
2024/03/21 03:59:17;;;;;;;3.13;2.00;;;17.80;64.90;;;;;;6184338;23;20211;-84
2024/03/21 04:01:45;;;;;;;3.35;2.15;;;17.70;65.10;;;;;;6133807;23;20210;-84
2024/03/21 04:04:11;;;;;;;3.72;1.92;;;17.70;64.90;;;;;;6135583;23;20346;-84
2024/03/21 04:06:37;;;;;;;3.05;1.80;;;17.80;64.70;;;;;;6134849;23;20147;-84
2024/03/21 04:09:04;;;;;;;3.20;2.00;;;17.80;64.50;;;;;;6135216;23;20147;-84
2024/03/21 04:11:32;;;;;;;2.85;1.85;;;17.80;64.70;;;;;;6134912;23;20147;-84
2024/03/21 04:13:59;;;;;;;2.47;2.00;;;17.80;64.80;;;;;;6160574;23;20138;-84
2024/03/21 04:16:26;;;;;;;2.92;1.90;;;17.80;64.70;;;;;;6109068;23;20157;-84
2024/03/21 04:18:52;;;;;;;2.70;1.92;;;17.80;64.80;;;;;;6184384;23;20199;-84
2024/03/21 04:21:18;;;;;;;2.00;1.73;;;17.80;64.70;;;;;;6183825;23;20142;-83
2024/03/21 04:23:48;;;;;;;4.50;2.00;;;17.80;64.90;;;;;;6159289;23;20210;-84
2024/03/21 04:26:14;;;;;;;3.45;1.98;;;17.80;64.80;;;;;;6085620;23;20162;-85
2024/03/21 04:28:40;;;;;;;1.90;1.45;;;17.80;64.90;;;;;;6159413;23;20458;-84
2024/03/21 04:31:06;;;;;;;2.80;2.00;;;17.80;65.00;;;;;;6159520;23;20213;-85
2024/03/21 04:33:32;;;;;;;2.58;1.70;;;17.70;64.80;;;;;;6159774;23;20149;-85
2024/03/21 04:36:00;;;;;;;2.92;1.90;;;17.80;64.70;;;;;;6159699;23;20135;-85
2024/03/21 04:38:25;;;;;;;2.50;1.73;;;17.80;64.80;;;;;;6183975;23;20162;-84
2024/03/21 04:40:51;;;;;;;2.10;1.70;;;17.80;64.80;;;;;;6134529;23;20154;-84
2024/03/21 04:43:17;;;;;;;3.05;2.20;;;17.80;64.70;;;;;;6158522;23;20222;-84
2024/03/21 04:45:43;;;;;;;3.30;2.08;;;17.70;64.70;;;;;;6134404;23;20147;-84
2024/03/21 04:48:09;;;;;;;4.25;1.92;;;17.80;64.80;;;;;;6159225;23;20146;-84
2024/03/21 04:50:34;;;;;;;1.90;1.70;;;17.80;64.90;;;;;;6183845;23;20147;-85
2024/03/21 04:53:00;;;;;;;2.10;1.90;;;17.80;65.20;;;;;;6134447;23;20539;-84
2024/03/21 04:55:26;;;;;;;3.40;2.00;;;17.70;65.10;;;;;;6158212;23;20493;-85
2024/03/21 04:57:52;;;;;;;2.10;1.90;;;17.70;64.90;;;;;;6159272;23;20146;-84
2024/03/21 05:00:18;;;;;;;2.90;1.77;;;17.70;65.20;;;;;;6159220;23;20486;-84
2024/03/21 05:02:44;;;;;;;3.40;1.98;;;17.80;65.10;;;;;;6134851;23;20150;-84
2024/03/21 05:05:10;;;;;;;2.70;1.90;;;17.70;64.70;;;;;;6184950;23;20614;-84
2024/03/21 05:07:36;;;;;;;2.85;1.75;;;17.80;64.70;;;;;;6158510;23;20151;-85
2024/03/21 05:10:03;;;;;;;2.70;1.98;;;17.80;64.70;;;;;;6158586;23;20177;-84
2024/03/21 05:12:29;;;;;;;2.55;1.98;;;17.70;65.00;;;;;;6159228;23;20143;-84
2024/03/21 05:14:55;;;;;;;3.08;1.90;;;17.70;64.90;;;;;;6183696;23;20139;-85
2024/03/21 05:17:21;;;;;;;2.70;2.08;;;17.70;65.00;;;;;;6183863;23;20470;-84
2024/03/21 05:19:48;;;;;;;2.20;1.75;;;17.70;65.20;;;;;;6158478;23;20234;-84
2024/03/21 05:22:15;;;;;;;2.38;2.15;;;17.70;64.90;;;;;;6183977;23;20575;-84
2024/03/21 05:24:41;;;;;;;1.92;1.70;;;17.70;64.80;;;;;;6184302;23;20261;-84
2024/03/21 05:27:07;;;;;;;2.83;1.80;;;17.80;65.00;;;;;;6134647;23;20512;-84
2024/03/21 05:29:35;;;;;;;2.40;2.00;;;17.70;64.90;;;;;;6185031;23;20213;-85
2024/03/21 05:32:00;;;;;;;2.80;1.90;;;17.70;65.30;;;;;;6159368;23;20142;-84
2024/03/21 05:34:27;;;;;;;3.38;1.80;;;17.70;64.80;;;;;;6158529;23;20154;-84
2024/03/21 05:36:54;;;;;;;2.95;2.10;;;17.70;65.20;;;;;;6183716;23;20131;-84
2024/03/21 05:39:20;;;;;;;2.78;2.20;;;17.70;65.00;;;;;;6159270;23;20544;-84
2024/03/21 05:41:46;;;;;;;2.58;1.77;;;17.70;65.20;;;;;;6134589;23;20147;-84
2024/03/21 05:44:13;;;;;;;3.17;1.75;;;17.70;65.20;;;;;;6133872;23;20202;-84
2024/03/21 05:46:38;;;;;;;2.50;1.80;;;17.70;64.80;;;;;;6134510;23;20222;-84
2024/03/21 05:49:04;;;;;;;2.95;2.08;;;17.70;64.70;;;;;;6134731;23;20174;-85
2024/03/21 05:51:32;;;;;;;2.10;1.88;;;17.70;64.80;;;;;;6134347;23;20131;-84
2024/03/21 05:53:58;;;;;;;2.13;1.80;;;17.70;65.00;;;;;;6158706;23;20234;-84
2024/03/21 05:56:23;;;;;;;2.85;1.77;;;17.70;64.60;;;;;;6159128;23;20586;-84
2024/03/21 05:58:49;;;;;;;2.97;2.00;;;17.70;64.80;;;;;;6134950;23;20143;-85
2024/03/21 06:01:25;;;;;;;2.50;1.88;;;17.80;65.00;;;;;;6159100;23;20138;-84
2024/03/21 06:04:00;;;;;;;2.47;1.90;;;17.70;64.90;;;;;;6162306;23;20170;-85
2024/03/21 06:06:26;;;;;;;3.13;1.95;;;17.70;65.00;;;;;;6072550;23;20533;-85
2024/03/21 06:08:52;;;;;;;1.98;1.70;;;17.70;64.90;;;;;;6072301;23;20160;-85
2024/03/21 06:11:18;;;;;;;2.97;1.85;;;17.70;65.30;;;;;;6072588;23;20180;-85
2024/03/21 06:13:44;;;;;;;2.15;1.65;;;17.60;65.00;;;;;;6072726;23;20198;-85
2024/03/21 06:16:09;;;;;;;2.78;1.73;;;17.70;64.80;;;;;;6073677;23;20153;-84
2024/03/21 06:18:38;;;;;;;3.10;1.90;;;17.80;65.30;;;;;;6073126;23;20141;-85
2024/03/21 06:21:04;;;;;;;2.47;2.00;;;17.70;65.00;;;;;;6048727;23;20164;-85
2024/03/21 06:23:30;;;;;;;2.28;1.75;;;17.70;64.80;;;;;;6048682;23;20192;-84
2024/03/21 06:25:57;;;;;;;2.22;1.80;;;17.70;65.00;;;;;;6048334;23;20153;-84
2024/03/21 06:28:27;;;;;;;2.63;1.83;;;17.60;65.20;;;;;;6073287;23;20177;-84
2024/03/21 06:30:55;;;;;;;2.85;2.10;;;17.60;65.00;;;;;;6073135;23;20153;-84
2024/03/21 06:33:22;;;;;;;2.28;1.90;;;17.60;65.00;;;;;;6046551;23;20176;-84
2024/03/21 06:35:52;;;;;;;3.10;2.10;;;17.60;65.40;;;;;;6069744;23;20144;-85
2024/03/21 06:38:18;;;;;;;3.92;1.95;;;17.60;64.80;;;;;;6143886;23;20155;-85
2024/03/21 06:40:44;;;;;;;2.80;2.10;;;17.70;64.90;;;;;;6183645;23;20512;-84
2024/03/21 06:43:10;;;;;;;2.08;1.52;;;17.70;65.10;;;;;;6134898;23;20562;-84
2024/03/21 06:45:38;;;;;;;2.78;1.92;;;17.70;65.10;;;;;;6153523;23;20183;-84
2024/03/21 06:48:07;;;;;;;2.95;1.98;;;17.80;64.80;;;;;;6129611;23;20151;-84
2024/03/21 06:50:40;;;;;;;5.07;2.00;;;17.70;65.20;;;;;;6138121;23;20343;-84
2024/03/21 06:53:06;;;;;;;2.55;1.98;;;17.70;65.60;;;;;;6112455;23;20151;-83
2024/03/21 06:55:34;;;;;;;2.80;1.70;;;17.60;64.90;;;;;;6110546;23;20156;-84
2024/03/21 06:58:06;;;;;;;3.70;1.98;;;17.70;65.20;;;;;;6109927;23;20223;-83
2024/03/21 07:00:53;;;;;;;7.25;2.15;;;17.70;65.00;;;;;;6107161;23;20160;-83
2024/03/21 07:03:39;;;;;;;2.72;1.98;;;17.70;65.20;;;;;;6054252;23;20153;-83
2024/03/21 07:06:15;;;;;;;3.30;2.30;;;17.70;64.80;;;;;;6024762;23;20158;-83
2024/03/21 07:08:49;;;;;;;2.83;2.17;;;17.70;65.30;;;;;;5946397;24;20159;-83
2024/03/21 07:11:22;;;;;;;2.42;2.10;;;17.60;65.10;;;;;;5963008;24;20163;-83
2024/03/21 07:13:57;;;;;;;2.95;2.10;;;17.60;64.90;;;;;;5932582;24;20191;-83
2024/03/21 07:16:30;;;;;;;3.78;1.98;;;17.60;65.00;;;;;;5912293;24;20155;-84
2024/03/21 07:18:56;;;;;;;3.65;2.05;;;17.60;64.80;;;;;;5885970;24;20163;-84
2024/03/21 07:21:29;;;;;;;2.53;2.00;;;17.70;65.40;;;;;;5929960;24;20160;-83
2024/03/21 07:24:05;;;;;;;2.22;1.88;;;17.60;64.90;;;;;;5931402;24;20186;-83
2024/03/21 07:26:42;;;;;;;2.47;2.00;;;17.70;64.60;;;;;;5908600;24;20215;-83
2024/03/21 07:29:13;;;;;;;2.58;1.73;;;17.70;64.90;;;;;;5909726;24;20160;-83
2024/03/21 07:31:43;;;;;;;3.78;1.73;;;17.70;64.30;;;;;;5953031;24;20656;-83
2024/03/21 07:34:09;;;;;;;2.67;1.80;;;17.70;64.00;;;;;;5923727;24;20165;-83
2024/03/21 07:36:35;;;;;;;3.55;1.80;;;17.80;63.90;;;;;;5966803;23;20233;-84
2024/03/21 07:39:05;;;;;;;2.75;1.63;;;17.80;64.40;;;;;;6015296;23;20594;-84
2024/03/21 07:41:41;;;;;;;2.67;2.10;;;17.80;64.40;;;;;;5991939;23;20158;-84
2024/03/21 07:44:13;;;;;;;2.17;1.70;;;17.80;64.20;;;;;;5958942;24;20278;-83
2024/03/21 07:46:51;;;;;;;2.33;1.95;;;17.80;64.40;;;;;;5976778;23;20153;-83
2024/03/21 07:49:17;;;;;;;3.13;1.60;;;17.80;64.10;;;;;;5995698;23;20161;-84
2024/03/21 07:51:47;;;;;;;3.83;1.85;;;17.70;64.70;;;;;;6043640;23;20201;-84
2024/03/21 07:54:13;;;;;;;2.08;1.58;;;17.80;64.50;;;;;;6019164;23;20691;-82
2024/03/21 07:56:43;;;;;;;2.10;1.80;;;17.70;64.30;;;;;;6089061;23;20161;-83
2024/03/21 07:59:09;;;;;;;3.10;1.70;;;17.70;64.50;;;;;;6065840;23;20170;-84
2024/03/21 08:01:39;;;;;;;2.40;1.60;;;17.70;65.00;;;;;;6089592;23;20153;-84
2024/03/21 08:04:08;;;;;;;2.35;1.73;;;17.70;65.10;;;;;;6040792;23;20212;-83
2024/03/21 08:06:37;;;;;;;2.38;1.75;;;17.60;65.30;;;;;;6042468;23;20146;-84
2024/03/21 08:09:03;;;;;;;2.50;1.75;;;17.60;65.20;;;;;;6065723;23;20169;-83
2024/03/21 08:11:32;;;;;;;3.88;1.88;;;17.70;65.10;;;;;;6042520;23;20142;-84
2024/03/21 08:13:58;;;;;;;2.60;1.65;;;17.60;65.40;;;;;;6047510;23;20164;-84
2024/03/21 08:16:26;;;;;;;2.25;1.77;;;17.60;65.30;;;;;;6129742;23;20155;-83
2024/03/21 08:18:54;;;;;;;3.90;1.70;;;17.60;65.30;;;;;;6105775;23;20381;-84
2024/03/21 08:21:21;;;;;;;2.80;1.90;;;17.60;65.40;;;;;;6104279;23;20214;-83
2024/03/21 08:23:48;;;;;;;1.85;1.38;;;17.60;65.30;;;;;;6130406;23;20266;-84
2024/03/21 08:26:17;;;;;;;4.70;1.90;;;17.60;65.30;;;;;;6132533;23;20135;-84
2024/03/21 08:28:44;;;;;;;2.35;1.80;;;17.60;65.30;;;;;;6130065;23;20182;-84
2024/03/21 08:31:10;;;;;;;2.45;1.90;;;17.50;65.40;;;;;;6129496;23;20203;-85
2024/03/21 08:33:36;;;;;;;1.95;1.38;;;17.60;66.10;;;;;;6133879;23;20507;-84
2024/03/21 08:36:14;;;;;;;2.33;2.05;;;17.60;65.30;;;;;;6134344;23;20128;-84
2024/03/21 08:38:40;;;;;;;3.33;1.92;;;17.70;64.30;;;;;;6108693;23;20603;-86
2024/03/21 08:41:26;;;;;;;2.38;1.95;;;17.70;65.00;;;;;;6074620;23;20183;-86
2024/03/21 08:43:58;;;;;;;3.20;1.58;;;17.70;64.90;;;;;;6103262;23;20203;-83
2024/03/21 08:46:26;;;;;;;2.28;1.85;;;17.70;64.90;;;;;;6102317;23;20925;-81
2024/03/21 08:48:52;;;;;;;2.72;1.90;;;17.80;64.90;;;;;;6126229;23;20219;-82
2024/03/21 08:51:22;;;;;;;4.95;1.83;;;17.90;63.90;;;;;;6100339;23;20152;-82
2024/03/21 08:53:47;;;;;;;2.80;1.80;;;17.90;63.90;;;;;;6099456;23;20167;-83
2024/03/21 08:56:13;;;;;;;2.60;1.65;;;17.90;63.00;;;;;;6124227;23;20620;-82
2024/03/21 08:58:39;;;;;;;2.50;1.80;;;17.90;63.50;;;;;;6125011;23;20136;-81
2024/03/21 09:01:05;;;;;;;2.47;1.67;;;17.90;63.70;;;;;;6124077;23;20148;-82
2024/03/21 09:03:32;;;;;;;1.98;1.73;;;18.00;63.90;;;;;;6102959;23;20203;-81
2024/03/21 09:05:58;;;;;;;1.70;1.45;;;18.00;63.80;;;;;;6101097;23;20179;-82
2024/03/21 09:08:25;;;;;;;2.30;1.77;;;17.90;63.20;;;;;;6125526;23;20144;-81
2024/03/21 09:10:51;;;;;;;1.83;1.60;;;18.00;63.10;;;;;;6128331;23;20140;-81
2024/03/21 09:13:16;;;;;;;2.58;1.70;;;18.00;63.20;;;;;;6133920;23;20147;-81
2024/03/21 09:15:42;;;;;;;2.08;1.60;;;18.10;62.90;;;;;;6086528;23;20143;-81
2024/03/21 09:18:09;;;;;;;2.70;1.73;;;18.00;63.30;;;;;;6134056;23;20128;-82
2024/03/21 09:20:37;;;;;;;2.70;1.50;;;18.00;62.90;;;;;;6085750;23;20540;-82
2024/03/21 09:23:03;;;;;;;1.75;1.45;;;18.10;62.90;;;;;;6111154;23;20471;-83
2024/03/21 09:25:32;;;;;;;2.13;1.67;;;18.00;63.60;;;;;;6111406;23;20240;-81
2024/03/21 09:28:01;;;;;;;2.80;1.75;;;18.00;63.20;;;;;;6133629;23;20155;-81
2024/03/21 09:30:30;;;;;;;2.33;1.58;;;18.00;62.80;;;;;;6108480;23;20250;-84
2024/03/21 09:32:56;;;;;;;1.92;1.70;;;18.00;63.20;;;;;;6131602;23;20235;-82
2024/03/21 09:35:24;;;;;;;1.92;1.70;;;18.00;63.00;;;;;;6106624;23;20163;-83
2024/03/21 09:37:51;;;;;;;2.17;1.75;;;18.00;62.80;;;;;;6085227;23;20218;-81
2024/03/21 09:40:20;;;;;;;2.10;1.67;;;18.00;63.40;;;;;;6084993;23;20290;-81
2024/03/21 09:42:48;;;;;;;1.80;1.60;;;18.00;63.20;;;;;;6151348;23;20285;-82
2024/03/21 09:45:22;;;;;;;2.08;1.70;;;18.00;62.60;;;;;;6163887;23;20187;-82
2024/03/21 09:47:51;;;;;;;2.40;1.55;;;18.10;63.00;;;;;;6164170;23;20165;-81
2024/03/21 09:50:18;;;;;;;2.35;1.58;;;18.00;63.60;;;;;;6139326;23;20182;-80
2024/03/21 09:52:44;;;;;;;2.78;1.73;;;18.10;63.40;;;;;;6192407;23;20509;-81
2024/03/21 09:55:13;;;;;;;2.00;1.70;;;18.00;63.20;;;;;;6191834;23;20186;-81
2024/03/21 09:57:39;;;;;;;1.90;1.70;;;18.00;63.70;;;;;;6143312;23;20147;-82
2024/03/21 10:00:06;;;;;;;3.15;1.73;;;18.00;62.70;;;;;;6143248;23;20150;-81
2024/03/21 10:02:33;;;;;;;1.92;1.70;;;18.00;63.20;;;;;;6166706;23;20582;-83
2024/03/21 10:04:59;;;;;;;2.15;1.77;;;18.10;62.50;;;;;;6192431;23;20173;-82
2024/03/21 10:07:29;;;;;;;1.60;1.50;;;18.00;63.20;;;;;;6165783;23;20170;-81
2024/03/21 10:09:57;;;;;;;2.05;1.77;;;18.00;63.70;;;;;;6139589;23;20586;-81
2024/03/21 10:12:24;;;;;;;1.92;1.55;;;18.10;62.60;;;;;;6187883;23;20135;-81
2024/03/21 10:14:53;;;;;;;2.10;1.67;;;18.10;62.90;;;;;;6163886;23;20570;-80
2024/03/21 10:17:19;;;;;;;2.75;1.88;;;18.10;62.60;;;;;;6163829;23;20127;-81
2024/03/21 10:19:45;;;;;;;1.88;1.50;;;18.10;62.70;;;;;;6137921;23;20244;-81
2024/03/21 10:22:17;;;;;;;1.58;1.40;;;18.10;64.10;;;;;;6188795;23;20589;-81
2024/03/21 10:24:43;;;;;;;4.95;1.85;;;18.10;64.00;;;;;;6139506;23;20977;-80
2024/03/21 10:27:13;;;;;;;1.60;1.38;;;18.10;63.30;;;;;;6189158;23;20159;-81
2024/03/21 10:29:39;;;;;;;1.98;1.65;;;18.10;63.60;;;;;;6163685;23;20193;-83
2024/03/21 10:32:04;;;;;;;4.28;1.45;;;18.00;63.30;;;;;;6137570;23;20524;-81
2024/03/21 10:34:32;;;;;;;1.98;1.60;;;18.10;63.80;;;;;;6137982;23;20590;-80
2024/03/21 10:36:59;;;;;;;2.35;1.77;;;18.10;62.30;;;;;;6167317;23;20232;-81
2024/03/21 10:39:25;;;;;;;2.40;1.50;;;18.20;62.40;;;;;;6167638;23;20157;-85
2024/03/21 10:41:50;;;;;;;3.10;1.52;;;18.20;62.50;;;;;;6141666;23;20150;-82
2024/03/21 10:44:17;;;;;;;1.65;1.25;;;18.20;63.40;;;;;;6139550;23;20198;-82
2024/03/21 10:46:45;;;;;;;2.20;1.50;;;18.10;62.80;;;;;;6140611;23;20142;-81
2024/03/21 10:49:13;;;;;;;2.60;1.60;;;18.20;63.40;;;;;;6165345;23;20131;-82
2024/03/21 10:51:42;;;;;;;1.98;1.55;;;18.20;62.80;;;;;;6190751;23;20174;-83
2024/03/21 10:54:10;;;;;;;1.83;1.50;;;18.10;63.30;;;;;;6140903;23;20168;-83
2024/03/21 10:56:38;;;;;;;2.97;1.60;;;18.10;62.50;;;;;;6167014;23;20139;-81
2024/03/21 10:59:04;;;;;;;1.70;1.40;;;18.10;62.30;;;;;;6166555;23;20135;-80
2024/03/21 11:01:38;;;;;;;3.35;1.30;;;18.20;62.50;;;;;;6165884;23;20141;-82
2024/03/21 11:04:06;;;;;;;2.55;1.55;;;18.20;62.60;;;;;;6141450;23;20207;-81
2024/03/21 11:06:33;;;;;;;2.63;1.50;;;18.20;62.40;;;;;;6192795;23;20638;-83
2024/03/21 11:09:00;;;;;;;1.60;1.50;;;18.20;62.40;;;;;;6191052;23;20158;-81
2024/03/21 11:11:26;;;;;;;2.95;1.77;;;18.20;62.60;;;;;;6190430;23;20138;-82
2024/03/21 11:13:54;;;;;;;3.08;1.70;;;18.20;62.30;;;;;;6190238;23;20269;-84
2024/03/21 11:16:20;;;;;;;2.47;1.67;;;18.20;62.00;;;;;;6140048;23;20217;-81
2024/03/21 11:18:46;;;;;;;1.80;1.50;;;18.20;62.10;;;;;;6187099;23;20142;-83
2024/03/21 11:21:13;;;;;;;1.60;1.40;;;18.20;62.60;;;;;;6186652;23;20475;-84
2024/03/21 11:23:39;;;;;;;1.70;1.50;;;18.20;62.40;;;;;;6160916;23;20245;-82
2024/03/21 11:26:09;;;;;;;2.10;1.50;;;18.20;61.60;;;;;;6137722;23;20663;-82
2024/03/21 11:28:35;;;;;;;3.22;1.50;;;18.20;62.80;;;;;;6163557;23;20159;-81
2024/03/21 11:31:02;;;;;;;1.80;1.50;;;18.20;63.20;;;;;;6139818;23;20147;-83
2024/03/21 11:33:30;;;;;;;1.30;1.20;;;18.20;62.90;;;;;;6165737;23;20167;-81
2024/03/21 11:35:57;;;;;;;1.73;1.30;;;18.20;62.70;;;;;;6128733;23;20194;-81
2024/03/21 11:38:27;;;;;;;1.60;1.48;;;18.20;62.40;;;;;;6106854;23;20596;-82
2024/03/21 11:40:58;;;;;;;1.65;1.33;;;18.20;62.90;;;;;;6106242;23;20175;-83
2024/03/21 11:43:27;;;;;;;1.80;1.42;;;18.20;63.10;;;;;;6083341;23;20726;-83
2024/03/21 11:45:53;;;;;;;2.33;1.02;;;18.20;62.70;;;;;;6056061;23;20271;-79
2024/03/21 11:48:24;;;;;;;1.83;1.30;;;18.20;63.20;;;;;;6128048;23;20164;-82
2024/03/21 11:50:55;;;;;;;1.70;1.50;;;18.20;62.80;;;;;;6102369;23;20207;-82
2024/03/21 11:53:24;;;;;;;1.75;1.42;;;18.20;62.70;;;;;;6123661;23;20176;-80
2024/03/21 11:56:00;;;;;;;1.45;1.20;;;18.20;62.80;;;;;;6075567;23;20685;-80
2024/03/21 11:58:26;;;;;;;1.70;1.20;;;18.30;62.80;;;;;;6054444;23;20183;-84
2024/03/21 12:01:45;;;;;;;1.40;1.30;;;18.30;62.90;;;;;;6104642;23;20152;-84
2024/03/21 12:04:00;;;;;;;1.58;1.23;;;18.20;64.00;;;;;;6093271;23;20186;-88
2024/03/21 12:07:19;;;;;;;1.38;1.27;;;18.20;63.00;;;;;;6148181;23;20489;-88
2024/03/21 15:00:38;;;;;;;3.15;1.20;;;18.60;63.50;;;;;;6248825;22;20197;-83
2024/03/21 15:03:10;;;;;;;5.68;1.10;;;18.60;62.70;;;;;;6116178;23;20159;-84
2024/03/21 15:06:10;;;;;;;5.10;1.00;;;18.60;63.20;;;;;;6141367;23;20205;-84
2024/03/21 15:08:36;;;;;;;4.35;1.30;;;18.60;63.20;;;;;;6119070;23;20140;-85
2024/03/21 15:11:06;;;;;;;2.60;1.02;;;18.70;62.90;;;;;;6117274;23;20225;-84
2024/03/21 15:13:35;;;;;;;5.57;1.25;;;18.60;62.70;;;;;;6141999;23;20152;-83
2024/03/21 15:16:02;;;;;;;4.38;1.10;;;18.70;62.20;;;;;;6114621;23;20226;-83
2024/03/21 15:18:31;;;;;;;3.33;1.05;;;18.70;63.00;;;;;;6114966;23;20671;-84
2024/03/21 15:21:12;;;;;;;1.80;1.30;;;18.70;63.10;;;;;;6114518;23;20148;-83
2024/03/21 15:23:38;;;;;;;2.60;1.10;;;18.70;63.20;;;;;;6115477;23;20158;-84
2024/03/21 15:26:04;;;;;;;4.40;1.10;;;18.70;63.10;;;;;;6115969;23;20151;-83
2024/03/21 15:28:54;;;;;;;2.67;1.00;;;18.70;63.60;;;;;;6116742;23;20154;-85
2024/03/21 15:32:56;;;;;;;;;;;;;;;;;;;;;
2024/03/21 15:34:55;;;;;;;6.20;1.30;;;18.60;63.40;;;;;;6058547;23;20161;-82
2024/03/21 15:37:31;;;;;;;2.50;0.98;;;18.60;63.70;;;;;;6014300;23;20153;-83
2024/03/21 15:39:58;;;;;;;5.15;1.40;;;18.60;63.50;;;;;;6033607;23;20157;-83
2024/03/21 15:42:24;;;;;;;4.85;0.90;;;18.60;63.80;;;;;;6081848;23;20165;-83
2024/03/21 15:45:19;;;;;;;2.55;1.10;;;18.60;64.10;;;;;;6031302;23;20181;-84
2024/03/21 15:47:47;;;;;;;3.55;0.80;;;18.60;64.70;;;;;;6001059;23;20162;-83